Time;durP1;ratioP1;P1;durP2;ratioP2;P2;SDS_P1;SDS_P2;PMS_P1;PMS_P2;Temp;Humidity;BMP_temperature;BMP_pressure;BME280_temperature;BME280_humidity;BME280_pressure;Samples;Min_cycle;Max_cycle;Signal;HPM_P1;HPM_P2
2022/03/20 00:02:33;;;;;;;18.13;13.57;;;;;;;9.16;35.49;99890.44;7017446;28;20267;-81
2022/03/20 00:05:55;;;;;;;20.67;13.17;;;;;;;9.91;34.99;99871.88;7017917;28;20214;-81
2022/03/20 00:09:18;;;;;;;18.77;13.60;;;;;;;10.21;34.91;99908.81;7017092;28;20613;-82
2022/03/20 00:12:41;;;;;;;17.40;12.37;;;;;;;10.35;34.02;99905.38;7016009;28;20205;-82
2022/03/20 00:16:05;;;;;;;17.57;13.23;;;;;;;10.37;34.43;99891.72;7015748;28;20209;-82
2022/03/20 00:19:26;;;;;;;14.43;11.97;;;;;;;10.33;34.68;99904.72;7015808;28;20225;-82
2022/03/20 00:22:48;;;;;;;17.73;13.37;;;;;;;10.42;34.55;99902.81;7016365;28;20216;-82
2022/03/20 00:26:11;;;;;;;16.93;13.53;;;;;;;10.52;33.96;99901.56;7016654;28;20493;-82
2022/03/20 00:29:32;;;;;;;17.67;13.50;;;;;;;10.52;34.28;99898.03;7016011;28;20217;-82
2022/03/20 00:32:54;;;;;;;17.80;12.50;;;;;;;10.21;34.30;99895.34;7016762;28;20210;-82
2022/03/20 00:36:16;;;;;;;17.63;13.80;;;;;;;10.57;33.82;99899.16;7018354;28;20682;-81
2022/03/20 00:39:37;;;;;;;18.17;13.53;;;;;;;10.51;33.72;99891.78;7018859;28;20217;-82
2022/03/20 00:43:03;;;;;;;17.90;13.00;;;;;;;10.31;33.82;99900.50;7020066;28;20225;-82
2022/03/20 00:46:25;;;;;;;19.90;13.17;;;;;;;10.23;34.13;99887.09;7018881;28;20205;-82
2022/03/20 00:49:49;;;;;;;20.13;13.40;;;;;;;10.36;34.17;99904.38;7019379;28;20198;-82
2022/03/20 00:53:11;;;;;;;16.63;13.80;;;;;;;10.29;34.14;99887.22;7018725;28;20348;-82
2022/03/20 00:56:33;;;;;;;17.70;13.80;;;;;;;10.23;34.37;99879.00;7018170;28;20232;-82
2022/03/20 00:59:56;;;;;;;22.00;13.47;;;;;;;10.40;34.64;99884.09;7020242;28;20416;-82
2022/03/20 01:03:18;;;;;;;20.20;13.43;;;;;;;10.56;34.93;99888.59;7019207;28;20222;-82
2022/03/20 01:06:39;;;;;;;18.57;14.30;;;;;;;10.36;35.14;99896.28;7019789;28;20225;-81
2022/03/20 01:10:01;;;;;;;20.07;13.33;;;;;;;10.40;36.06;99888.69;7020793;28;20210;-82
2022/03/20 01:13:23;;;;;;;18.53;14.57;;;;;;;10.23;36.90;99898.72;7020917;28;20291;-82
2022/03/20 01:16:46;;;;;;;19.23;13.70;;;;;;;10.30;36.05;99882.66;7019686;28;20252;-82
2022/03/20 01:20:09;;;;;;;21.23;14.03;;;;;;;10.23;37.59;99881.69;7019547;28;20205;-82
2022/03/20 01:23:30;;;;;;;21.63;14.60;;;;;;;9.97;39.12;99894.56;7020426;28;20293;-82
2022/03/20 01:26:52;;;;;;;18.83;14.77;;;;;;;9.99;38.84;99874.53;7019104;28;20225;-82
2022/03/20 01:30:13;;;;;;;21.10;15.23;;;;;;;9.80;40.18;99895.69;7019501;28;20236;-82
2022/03/20 01:33:36;;;;;;;20.17;14.57;;;;;;;9.79;39.67;99880.50;7019588;28;20215;-82
2022/03/20 01:36:58;;;;;;;20.07;14.87;;;;;;;9.82;39.50;99880.16;7018405;28;20697;-82
2022/03/20 01:40:20;;;;;;;20.10;14.07;;;;;;;9.45;41.02;99864.63;7020130;28;20295;-82
2022/03/20 01:43:49;;;;;;;20.13;14.37;;;;;;;9.51;40.65;99860.44;7019060;28;20229;-82
2022/03/20 01:47:12;;;;;;;20.27;15.30;;;;;;;9.55;40.97;99854.50;7018166;28;20236;-82
2022/03/20 01:50:35;;;;;;;22.50;15.00;;;;;;;9.32;41.96;99863.47;7019444;28;20201;-81
2022/03/20 01:53:56;;;;;;;22.27;15.03;;;;;;;9.41;41.98;99873.22;7019721;28;20216;-82
2022/03/20 01:57:20;;;;;;;20.57;15.17;;;;;;;8.84;42.74;99868.91;7019392;28;20232;-82
2022/03/20 02:00:42;;;;;;;18.73;14.77;;;;;;;9.11;42.14;99866.72;7019779;28;20201;-81
2022/03/20 02:04:04;;;;;;;19.67;14.50;;;;;;;9.35;41.71;99869.38;7024328;28;20216;-82
2022/03/20 02:07:27;;;;;;;20.77;14.57;;;;;;;9.05;43.09;99867.38;7025036;28;20221;-81
2022/03/20 02:10:49;;;;;;;19.23;14.30;;;;;;;9.05;42.65;99859.31;7017493;28;20209;-82
2022/03/20 02:14:10;;;;;;;17.73;14.17;;;;;;;9.11;39.85;99833.59;7019313;28;20210;-82
2022/03/20 02:17:32;;;;;;;20.70;13.40;;;;;;;8.82;37.68;99824.38;7018757;28;20258;-82
2022/03/20 02:20:55;;;;;;;23.20;14.20;;;;;;;8.81;37.37;99810.13;7019502;28;20201;-82
2022/03/20 02:24:33;;;;;;;20.60;14.60;;;;;;;8.97;37.17;99796.66;7020510;28;20228;-82
2022/03/20 02:27:54;;;;;;;17.57;13.57;;;;;;;9.43;40.00;99845.13;7023933;28;20236;-82
2022/03/20 02:31:16;;;;;;;18.03;12.97;;;;;;;9.12;40.62;99843.34;7016715;28;20201;-82
2022/03/20 02:34:38;;;;;;;19.13;13.67;;;;;;;9.00;40.76;99798.97;7016337;28;20216;-82
2022/03/20 02:38:00;;;;;;;20.33;14.47;;;;;;;9.49;40.01;99824.75;7017272;28;20252;-82
2022/03/20 02:41:22;;;;;;;22.17;14.77;;;;;;;9.56;38.00;99829.25;7015235;28;20209;-82
2022/03/20 02:44:56;;;;;;;20.53;14.80;;;;;;;9.58;36.72;99819.16;7017114;28;20221;-82
2022/03/20 02:48:17;;;;;;;20.70;14.53;;;;;;;9.69;36.72;99824.16;7016714;28;20627;-82
2022/03/20 02:51:39;;;;;;;22.33;15.70;;;;;;;9.80;36.21;99810.31;7018199;28;20366;-82
2022/03/20 02:55:02;;;;;;;24.00;16.50;;;;;;;9.52;36.44;99801.00;7017582;28;20259;-82
2022/03/20 02:58:26;;;;;;;21.10;15.90;;;;;;;9.48;36.03;99839.22;7017595;28;20252;-82
2022/03/20 03:01:48;;;;;;;22.67;15.23;;;;;;;9.86;36.01;99828.47;7018923;28;20208;-82
2022/03/20 03:05:09;;;;;;;26.43;15.97;;;;;;;9.96;36.38;99826.41;7016777;28;20226;-82
2022/03/20 03:12:10;;;;;;;21.80;17.00;;;;;;;9.13;37.34;99836.94;7016639;28;20202;-81
2022/03/20 03:15:33;;;;;;;23.43;16.13;;;;;;;9.58;37.28;99838.00;7016474;28;20210;-82
2022/03/20 03:18:55;;;;;;;20.63;15.67;;;;;;;10.20;36.02;99841.59;7019963;28;20234;-82
2022/03/20 03:22:16;;;;;;;21.63;16.13;;;;;;;9.86;36.31;99841.09;7019824;28;20202;-82
2022/03/20 03:25:39;;;;;;;24.37;17.00;;;;;;;9.10;37.89;99826.53;7020182;28;20275;-82
2022/03/20 03:29:01;;;;;;;22.60;16.13;;;;;;;9.95;36.33;99821.19;7019189;28;20225;-82
2022/03/20 03:32:24;;;;;;;25.23;17.57;;;;;;;10.09;35.93;99821.31;7019335;28;20220;-82
2022/03/20 03:35:51;;;;;;;21.37;16.53;;;;;;;10.43;35.61;99839.78;7018352;28;20213;-82
2022/03/20 03:39:12;;;;;;;22.93;16.33;;;;;;;9.97;36.56;99829.91;7016555;28;20233;-82
2022/03/20 03:42:35;;;;;;;21.57;15.67;;;;;;;10.02;36.77;99822.16;7015642;28;20717;-82
2022/03/20 03:45:57;;;;;;;22.37;15.77;;;;;;;10.56;35.76;99834.66;7015457;28;20225;-82
2022/03/20 03:49:20;;;;;;;22.27;17.03;;;;;;;10.62;35.94;99852.81;7014540;28;20218;-82
2022/03/20 03:52:41;;;;;;;22.90;16.53;;;;;;;10.83;36.13;99837.63;7014063;28;20292;-82
2022/03/20 03:56:03;;;;;;;25.07;16.63;;;;;;;10.65;35.88;99839.81;7014470;28;20287;-82
2022/03/20 03:59:25;;;;;;;22.87;16.47;;;;;;;10.52;36.21;99839.53;7013859;28;20275;-82
2022/03/20 04:02:48;;;;;;;24.60;17.47;;;;;;;9.95;37.04;99848.97;7014758;28;20302;-82
2022/03/20 04:06:10;;;;;;;24.07;17.03;;;;;;;10.24;36.82;99840.25;7013659;28;20236;-82
2022/03/20 04:09:32;;;;;;;21.70;16.23;;;;;;;10.53;36.27;99851.16;7014925;28;20201;-82
2022/03/20 04:12:54;;;;;;;21.77;16.43;;;;;;;10.06;37.53;99861.22;7014363;28;20214;-81
2022/03/20 04:16:15;;;;;;;22.43;16.87;;;;;;;10.38;36.73;99840.31;7018054;28;20220;-82
2022/03/20 04:19:37;;;;;;;25.33;17.03;;;;;;;9.37;38.56;99835.06;7014792;28;20204;-82
2022/03/20 04:26:41;;;;;;;24.57;17.53;;;;;;;9.51;39.18;99847.78;7016487;28;20222;-82
2022/03/20 04:30:02;;;;;;;28.13;17.87;;;;;;;10.12;37.56;99839.81;7016357;28;20662;-82
2022/03/20 04:33:24;;;;;;;23.17;16.17;;;;;;;9.74;38.54;99829.03;7015521;28;20786;-81
2022/03/20 04:36:46;;;;;;;24.63;17.57;;;;;;;9.68;38.54;99849.41;7014988;28;20232;-82
2022/03/20 04:40:10;;;;;;;24.33;18.23;;;;;;;9.32;39.32;99829.34;7017295;28;20201;-82
2022/03/20 04:43:32;;;;;;;20.67;17.33;;;;;;;9.44;39.79;99849.50;7017125;28;20205;-82
2022/03/20 04:46:54;;;;;;;27.27;17.93;;;;;;;9.64;39.06;99855.31;7016530;28;20542;-82
2022/03/20 05:01:14;;;;;;;26.07;18.33;;;;;;;10.22;38.19;99866.53;7015908;28;20209;-82
2022/03/20 05:04:37;;;;;;;22.97;17.57;;;;;;;10.30;37.60;99817.97;7040359;28;20251;-82
2022/03/20 05:07:58;;;;;;;23.40;17.97;;;;;;;11.22;36.80;99859.03;7042191;28;20244;-82
2022/03/20 05:15:00;;;;;;;25.03;18.03;;;;;;;10.76;37.55;99879.84;7042695;28;20201;-82
2022/03/20 05:18:22;;;;;;;26.07;18.80;;;;;;;10.07;38.54;99836.81;7040927;28;20296;-82
2022/03/20 05:21:44;;;;;;;26.80;18.93;;;;;;;10.29;38.52;99873.75;7041969;28;20208;-82
2022/03/20 05:25:09;;;;;;;26.53;19.43;;;;;;;10.89;37.63;99884.59;7042122;28;20228;-82
2022/03/20 05:28:30;;;;;;;23.53;17.77;;;;;;;10.69;37.49;99884.25;7040833;28;20233;-82
2022/03/20 05:31:53;;;;;;;24.53;18.23;;;;;;;10.40;38.47;99881.41;7041026;28;20198;-82
2022/03/20 05:35:16;;;;;;;25.30;19.03;;;;;;;10.16;38.80;99884.25;7042560;28;20301;-82
2022/03/20 05:38:38;;;;;;;27.80;19.23;;;;;;;10.62;38.35;99893.25;7041114;28;20312;-82
2022/03/20 05:42:00;;;;;;;26.53;19.57;;;;;;;10.75;37.48;99866.53;7042780;28;20239;-82
2022/03/20 05:45:21;;;;;;;27.93;20.23;;;;;;;10.18;37.94;99881.38;7042242;28;20380;-82
2022/03/20 05:48:46;;;;;;;29.83;19.30;;;;;;;9.98;39.38;99898.97;7042248;28;20266;-81
2022/03/20 05:52:08;;;;;;;26.17;18.83;;;;;;;10.59;39.02;99907.09;7042469;28;20212;-82
2022/03/20 05:59:14;;;;;;;24.53;17.87;;;;;;;11.30;37.41;99889.47;6962237;28;20667;-82
2022/03/20 06:02:35;;;;;;;26.97;18.97;;;;;;;11.19;37.48;99906.13;7041491;28;20224;-82
2022/03/20 06:05:58;;;;;;;26.60;18.57;;;;;;;11.22;37.11;99897.63;7042014;28;20235;-82
2022/03/20 06:09:21;;;;;;;27.20;18.30;;;;;;;10.92;38.01;99901.28;7041871;28;20225;-82
2022/03/20 06:12:45;;;;;;;24.57;19.37;;;;;;;10.82;38.54;99906.09;7041459;28;20196;-82
2022/03/20 06:16:08;;;;;;;27.73;19.37;;;;;;;11.03;37.62;99917.03;7041939;28;20215;-82
2022/03/20 06:19:30;;;;;;;25.57;18.70;;;;;;;11.05;38.15;99920.38;7041638;28;20211;-82
2022/03/20 06:22:53;;;;;;;25.20;17.97;;;;;;;11.35;37.87;99910.53;7041797;28;20205;-82
2022/03/20 06:26:15;;;;;;;23.40;17.57;;;;;;;11.56;37.18;99925.00;7036536;28;20240;-79
2022/03/20 06:29:37;;;;;;;27.07;20.10;;;;;;;11.74;37.09;99932.78;7035655;28;20201;-79
2022/03/20 06:32:59;;;;;;;26.63;18.90;;;;;;;12.05;35.90;99936.16;7036970;28;20204;-80
2022/03/20 06:36:21;;;;;;;26.17;18.20;;;;;;;12.59;35.32;99921.22;7037339;28;20197;-79
2022/03/20 06:39:44;;;;;;;25.07;18.30;;;;;;;12.34;36.02;99926.13;7036945;28;20193;-81
2022/03/20 06:43:06;;;;;;;26.03;19.50;;;;;;;11.46;37.29;99923.59;7036277;28;20677;-79
2022/03/20 06:46:28;;;;;;;23.33;18.30;;;;;;;11.64;36.89;99913.31;7032465;28;20229;-80
2022/03/20 06:49:49;;;;;;;23.73;18.03;;;;;;;11.65;36.47;99902.31;7036999;28;20207;-83
2022/03/20 06:53:17;;;;;;;23.53;18.07;;;;;;;10.62;38.66;99925.63;7043782;28;20201;-82
2022/03/20 06:56:40;;;;;;;22.47;18.27;;;;;;;11.17;37.91;99931.63;7044652;28;20240;-83
2022/03/20 07:03:43;;;;;;;26.13;18.77;;;;;;;11.88;36.71;99931.94;7041276;28;20249;-84
2022/03/20 07:07:05;;;;;;;24.97;19.40;;;;;;;12.75;35.23;99943.47;7040786;28;20234;-83
2022/03/20 07:10:27;;;;;;;29.20;19.70;;;;;;;13.21;34.50;99916.91;7021066;28;20197;-81
2022/03/20 07:13:53;;;;;;;27.17;19.17;;;;;;;13.74;33.57;99946.13;7040393;28;20202;-82
2022/03/20 07:17:16;;;;;;;27.33;19.03;;;;;;;14.01;33.02;99956.06;7040495;28;20231;-80
2022/03/20 07:20:37;;;;;;;26.50;19.43;;;;;;;13.71;33.24;99944.63;7041560;28;20244;-80
2022/03/20 07:23:59;;;;;;;27.73;18.87;;;;;;;14.24;32.94;99954.81;7041276;28;20205;-80
2022/03/20 07:31:13;;;;;;;22.33;18.37;;;;;;;13.75;32.91;99942.34;6992011;28;20242;-80
2022/03/20 07:34:35;;;;;;;24.93;18.27;;;;;;;14.52;32.36;99960.16;7038525;28;20239;-80
2022/03/20 07:37:57;;;;;;;24.53;19.17;;;;;;;14.17;32.91;99923.22;7038308;28;20221;-80
2022/03/20 07:41:19;;;;;;;22.97;17.77;;;;;;;15.03;31.77;99942.34;7029903;28;20208;-80
2022/03/20 07:44:40;;;;;;;27.47;18.50;;;;;;;15.23;31.32;99943.22;7018886;28;20240;-80
2022/03/20 07:48:03;;;;;;;24.37;18.57;;;;;;;15.50;30.71;99955.81;7046550;28;20336;-81
2022/03/20 07:51:26;;;;;;;24.43;18.80;;;;;;;15.32;31.24;99947.41;7053614;28;20205;-80
2022/03/20 07:54:47;;;;;;;24.53;18.90;;;;;;;15.15;31.20;99940.72;7043233;28;20201;-82
2022/03/20 07:58:09;;;;;;;25.17;17.93;;;;;;;15.70;30.58;99945.78;7039087;28;20224;-80
2022/03/20 08:01:31;;;;;;;25.93;18.07;;;;;;;14.75;31.70;99945.19;7031763;28;20251;-78
2022/03/20 08:04:54;;;;;;;22.53;17.53;;;;;;;16.06;30.01;99943.44;7030827;28;20742;-80
2022/03/20 08:08:16;;;;;;;23.60;18.37;;;;;;;15.94;30.22;99950.56;7002672;28;20242;-78
2022/03/20 08:11:37;;;;;;;22.77;17.63;;;;;;;16.67;29.53;99948.28;7002298;28;20205;-78
2022/03/20 08:14:59;;;;;;;26.00;18.70;;;;;;;16.75;28.34;99949.94;7003821;28;20599;-78
2022/03/20 08:18:21;;;;;;;24.27;18.30;;;;;;;16.02;29.72;99936.72;7002952;28;20309;-78
2022/03/20 08:21:45;;;;;;;25.33;18.13;;;;;;;16.26;29.16;99914.25;7003628;28;20211;-78
2022/03/20 08:25:08;;;;;;;25.60;18.50;;;;;;;16.14;29.76;99935.88;7004044;28;20697;-79
2022/03/20 08:28:30;;;;;;;22.43;18.30;;;;;;;15.35;31.13;99969.63;7003591;28;20556;-78
2022/03/20 08:31:54;;;;;;;23.50;19.30;;;;;;;15.93;29.59;99938.03;7003169;28;20228;-79
2022/03/20 08:35:16;;;;;;;23.13;18.70;;;;;;;16.88;28.31;99961.56;7001443;28;20596;-78
2022/03/20 08:38:39;;;;;;;22.27;17.47;;;;;;;17.81;27.24;99908.94;7000117;28;20697;-78
2022/03/20 08:42:01;;;;;;;22.13;17.90;;;;;;;18.32;27.12;99943.03;6999903;28;20264;-78
2022/03/20 08:45:23;;;;;;;23.87;18.63;;;;;;;16.94;28.29;99955.28;6999113;28;20573;-78
2022/03/20 08:48:45;;;;;;;27.30;19.80;;;;;;;15.99;30.51;99957.03;6998762;28;20231;-78
2022/03/20 08:52:07;;;;;;;32.90;26.33;;;;;;;15.28;31.17;99960.56;6998655;28;20214;-79
2022/03/20 08:55:33;;;;;;;28.33;22.43;;;;;;;15.64;31.50;99971.91;6997234;28;20710;-78
2022/03/20 08:58:54;;;;;;;24.37;20.33;;;;;;;15.41;30.56;99938.03;6998766;28;20221;-78
2022/03/20 09:02:16;;;;;;;24.27;18.63;;;;;;;14.89;32.06;99963.22;6998291;28;20251;-78
2022/03/20 09:05:41;;;;;;;24.13;18.53;;;;;;;15.24;31.33;99978.34;6998087;28;20345;-78
2022/03/20 09:09:02;;;;;;;21.90;17.67;;;;;;;15.80;30.72;99968.78;6997747;28;20224;-78
2022/03/20 09:12:26;;;;;;;23.93;18.43;;;;;;;16.43;29.58;99968.06;7006794;28;20242;-78
2022/03/20 09:18:58;;;;;;;22.90;18.20;;;;;;;15.41;31.12;99992.41;7024828;28;20205;-78
2022/03/20 09:19:29;;;;;;;24.93;18.20;;;;;;;15.80;30.68;99971.50;7025688;28;20227;-78
2022/03/20 09:22:51;;;;;;;22.40;18.03;;;;;;;16.12;29.70;99980.66;7026171;28;20251;-78
2022/03/20 09:26:14;;;;;;;23.80;18.47;;;;;;;16.06;30.21;99981.50;7025210;28;20685;-80
2022/03/20 09:29:37;;;;;;;22.53;17.90;;;;;;;15.23;30.42;99929.63;7027819;28;20205;-79
2022/03/20 09:33:01;;;;;;;22.63;18.27;;;;;;;16.35;30.08;99973.69;7031105;28;20231;-80
2022/03/20 09:36:23;;;;;;;22.43;17.57;;;;;;;16.86;29.15;99984.66;7031718;28;20197;-81
2022/03/20 09:39:44;;;;;;;20.60;18.40;;;;;;;16.47;29.10;99992.97;7030964;28;20292;-78
2022/03/20 09:43:06;;;;;;;21.50;17.97;;;;;;;18.27;28.17;99980.25;7030122;28;20726;-79
2022/03/20 09:46:30;;;;;;;22.33;16.97;;;;;;;18.55;26.78;99986.91;7030977;28;20325;-79
2022/03/20 09:49:52;;;;;;;21.23;18.03;;;;;;;17.17;28.60;99969.16;7031875;28;20669;-79
2022/03/20 09:53:16;;;;;;;23.07;18.23;;;;;;;17.17;28.46;99998.31;7030195;28;20226;-79
2022/03/20 09:56:38;;;;;;;24.70;17.63;;;;;;;18.68;26.01;99992.19;7029358;28;20225;-79
2022/03/20 10:00:01;;;;;;;21.00;16.83;;;;;;;19.64;24.19;99971.94;7032002;28;20193;-79
2022/03/20 10:03:25;;;;;;;20.43;17.43;;;;;;;19.83;25.43;99992.69;7032592;28;20200;-79
2022/03/20 10:06:47;;;;;;;22.23;17.73;;;;;;;20.62;25.00;99984.72;7031590;28;20326;-79
2022/03/20 10:10:14;;;;;;;19.30;16.67;;;;;;;21.15;23.19;99974.34;7034005;28;20213;-79
2022/03/20 10:13:36;;;;;;;18.13;15.90;;;;;;;20.83;23.04;99989.56;7032856;28;20254;-79
2022/03/20 10:17:14;;;;;;;22.17;17.10;;;;;;;21.43;21.88;99975.16;7030998;28;20221;-79
2022/03/20 10:20:46;;;;;;;19.77;15.53;;;;;;;20.91;22.30;100002.06;7033004;28;20214;-79
2022/03/20 10:24:16;;;;;;;22.07;16.27;;;;;;;20.22;23.44;100005.72;7031940;28;20348;-79
2022/03/20 10:27:37;;;;;;;19.40;16.13;;;;;;;21.12;22.93;99993.19;7030751;28;20255;-79
2022/03/20 10:30:59;;;;;;;18.03;16.10;;;;;;;21.69;21.80;99993.78;7032145;28;20212;-79
2022/03/20 10:34:22;;;;;;;20.73;17.10;;;;;;;21.16;22.12;99981.50;7032367;28;20227;-79
2022/03/20 10:37:51;;;;;;;22.03;16.90;;;;;;;20.62;23.97;99986.63;7030922;28;20335;-79
2022/03/20 10:41:20;;;;;;;21.13;16.63;;;;;;;20.46;23.52;99959.97;7031947;28;20555;-79
2022/03/20 10:44:43;;;;;;;18.33;16.43;;;;;;;22.12;21.97;99988.47;7031045;28;20206;-79
2022/03/20 10:48:11;;;;;;;20.17;16.87;;;;;;;22.68;21.10;99999.22;7031038;28;20235;-79
2022/03/20 10:51:40;;;;;;;20.87;17.80;;;;;;;19.99;23.93;100002.94;7032230;28;20180;-79
2022/03/20 10:55:07;;;;;;;23.73;16.43;;;;;;;20.44;23.41;100001.31;7031666;28;20192;-80
2022/03/20 10:58:29;;;;;;;19.70;15.90;;;;;;;19.28;25.07;99991.22;7031179;28;20261;-79
2022/03/20 11:01:51;;;;;;;20.27;16.03;;;;;;;21.22;23.79;99996.97;7031591;28;20201;-79
2022/03/20 11:05:14;;;;;;;20.27;17.23;;;;;;;21.14;23.90;99991.88;7031736;28;20634;-79
2022/03/20 11:08:38;;;;;;;21.13;16.93;;;;;;;22.01;22.52;99981.13;7030792;28;20327;-79
2022/03/20 11:12:05;;;;;;;22.97;17.30;;;;;;;22.65;22.56;99982.41;7031469;28;20225;-79
2022/03/20 11:15:29;;;;;;;20.77;17.17;;;;;;;21.97;22.60;99988.22;7030741;28;20382;-79
2022/03/20 11:18:52;;;;;;;19.93;16.13;;;;;;;22.44;22.82;99980.44;7031740;28;20233;-79
2022/03/20 11:22:15;;;;;;;20.63;17.73;;;;;;;21.90;23.14;99957.34;7031722;28;20640;-79
2022/03/20 11:25:37;;;;;;;20.77;17.17;;;;;;;20.52;24.00;99984.50;7030940;28;20305;-79
2022/03/20 11:29:03;;;;;;;19.50;16.23;;;;;;;20.88;24.00;99997.06;7030854;28;20317;-79
2022/03/20 11:32:25;;;;;;;23.27;16.73;;;;;;;20.92;24.89;99992.81;7031142;28;20659;-79
2022/03/20 11:35:46;;;;;;;18.67;15.57;;;;;;;21.07;24.12;99987.59;7031484;28;20239;-79
2022/03/20 11:39:10;;;;;;;18.23;15.90;;;;;;;22.97;21.48;99981.47;7035710;28;20305;-80
2022/03/20 11:42:32;;;;;;;22.33;15.63;;;;;;;23.08;22.68;99980.47;7037365;28;20335;-79
2022/03/20 11:46:21;;;;;;;19.87;16.67;;;;;;;22.23;23.44;99979.28;7036818;28;20716;-79
2022/03/20 11:49:43;;;;;;;20.30;16.33;;;;;;;23.47;22.09;99961.91;7038591;28;20199;-79
2022/03/20 11:53:09;;;;;;;21.40;16.70;;;;;;;22.39;22.07;99928.97;7038621;28;20683;-79
2022/03/20 11:56:31;;;;;;;22.90;18.43;;;;;;;22.40;22.83;99966.34;7036123;28;20196;-79
2022/03/20 11:59:54;;;;;;;20.77;16.77;;;;;;;22.19;23.21;99972.63;7038292;28;20642;-79
2022/03/20 12:03:53;;;;;;;19.00;16.33;;;;;;;22.12;23.11;99963.72;7038899;28;20230;-79
2022/03/20 12:07:20;;;;;;;21.00;16.20;;;;;;;20.96;24.70;99969.28;7036996;28;20243;-79
2022/03/20 12:10:48;;;;;;;20.63;15.30;;;;;;;21.33;24.09;99946.69;7033081;28;20194;-78
2022/03/20 12:14:20;;;;;;;20.30;16.67;;;;;;;22.01;23.43;99922.63;7031794;28;20556;-78
2022/03/20 12:18:03;;;;;;;20.57;16.93;;;;;;;21.74;24.34;99960.09;7030693;28;20222;-78
2022/03/20 12:21:58;;;;;;;22.80;17.00;;;;;;;22.04;24.22;99957.81;7032307;28;20641;-78
2022/03/20 12:25:42;;;;;;;21.40;15.67;;;;;;;21.48;24.31;99956.03;7031563;28;20297;-78
2022/03/20 12:29:32;;;;;;;18.00;15.47;;;;;;;21.41;23.26;99952.63;7031352;28;20226;-78
2022/03/20 12:32:57;;;;;;;19.27;14.13;;;;;;;21.86;23.15;99925.97;7032003;28;20268;-78
2022/03/20 12:36:27;;;;;;;18.63;16.37;;;;;;;21.66;22.65;99924.78;7031416;28;20204;-78
2022/03/20 12:39:54;;;;;;;16.53;14.40;;;;;;;22.08;23.15;99937.03;7032028;28;20193;-78
2022/03/20 12:43:20;;;;;;;21.03;15.20;;;;;;;20.20;24.92;99928.44;7037562;28;20209;-79
2022/03/20 12:46:42;;;;;;;18.80;15.23;;;;;;;20.16;24.44;99940.13;7035650;28;20246;-79
2022/03/20 12:50:06;;;;;;;15.80;13.43;;;;;;;21.78;24.04;99911.84;7034239;28;20212;-79
2022/03/20 12:53:37;;;;;;;20.80;14.30;;;;;;;22.67;21.72;99933.50;7034695;28;20211;-79
2022/03/20 12:57:03;;;;;;;17.23;14.50;;;;;;;21.54;22.38;99924.03;7033249;28;20216;-79
2022/03/20 13:00:27;;;;;;;16.30;13.87;;;;;;;22.08;22.50;99920.53;7039085;28;20213;-80
2022/03/20 13:03:49;;;;;;;21.37;13.80;;;;;;;22.31;21.40;99892.84;7040161;28;20798;-79
2022/03/20 13:07:25;;;;;;;16.20;13.97;;;;;;;23.01;20.77;99918.50;7040353;28;20229;-79
2022/03/20 13:10:47;;;;;;;17.73;14.83;;;;;;;21.39;21.88;99913.63;7037758;28;20287;-79
2022/03/20 13:14:12;;;;;;;24.70;14.47;;;;;;;21.00;22.22;99916.47;7035184;28;20452;-79
2022/03/20 13:17:36;;;;;;;19.83;14.90;;;;;;;21.02;21.23;99906.06;7040862;28;20238;-80
2022/03/20 13:20:59;;;;;;;17.97;14.43;;;;;;;21.22;21.67;99898.22;7042024;28;20208;-79
2022/03/20 13:24:30;;;;;;;17.50;13.93;;;;;;;21.59;21.10;99900.25;7042320;28;20206;-80
2022/03/20 13:27:53;;;;;;;17.17;14.00;;;;;;;21.18;21.85;99897.06;7038655;28;20226;-80
2022/03/20 13:31:20;;;;;;;16.47;13.37;;;;;;;20.49;22.77;99902.78;7041988;28;20197;-80
2022/03/20 13:34:43;;;;;;;21.83;14.47;;;;;;;20.74;22.00;99905.22;7042903;28;20228;-79
2022/03/20 13:38:05;;;;;;;19.93;15.53;;;;;;;20.21;22.36;99834.25;7042950;28;20221;-79
2022/03/20 13:41:28;;;;;;;22.97;15.23;;;;;;;20.63;22.19;99887.72;7044088;28;20201;-79
2022/03/20 13:44:53;;;;;;;21.37;15.30;;;;;;;20.76;22.27;99887.41;7045265;28;20220;-79
2022/03/20 13:48:17;;;;;;;16.67;14.93;;;;;;;20.44;22.81;99905.41;7043035;28;20261;-80
2022/03/20 13:51:40;;;;;;;17.83;15.80;;;;;;;20.76;22.02;99883.88;7044252;28;20219;-79
2022/03/20 13:55:05;;;;;;;19.57;14.93;;;;;;;20.15;22.31;99848.91;7044164;28;20213;-80
2022/03/20 13:58:27;;;;;;;17.73;14.10;;;;;;;20.29;22.59;99891.38;7043548;28;20240;-80
2022/03/20 14:01:50;;;;;;;16.27;13.63;;;;;;;20.23;22.59;99875.09;7045184;28;20217;-79
2022/03/20 14:05:21;;;;;;;18.60;14.10;;;;;;;20.65;21.74;99873.78;7044585;28;20597;-79
2022/03/20 14:08:51;;;;;;;18.73;14.17;;;;;;;20.67;21.76;99877.09;7044093;28;20229;-79
2022/03/20 14:12:31;;;;;;;17.17;14.20;;;;;;;20.24;22.49;99839.25;7045133;28;20737;-79
2022/03/20 14:16:05;;;;;;;19.57;14.43;;;;;;;21.11;21.27;99855.22;7037116;28;20195;-79
2022/03/20 14:19:27;;;;;;;18.57;14.87;;;;;;;20.37;22.06;99849.94;7045296;28;20591;-79
2022/03/20 14:22:54;;;;;;;18.37;14.13;;;;;;;21.34;21.20;99872.38;7046238;28;20203;-79
2022/03/20 14:26:20;;;;;;;19.33;14.40;;;;;;;20.79;20.59;99856.78;7045032;28;20238;-79
2022/03/20 14:40:58;;;;;;;18.93;14.20;;;;;;;20.76;21.65;99851.78;7038317;28;20198;-80
2022/03/20 14:44:20;;;;;;;19.13;14.57;;;;;;;21.47;21.09;99873.94;7019198;28;20203;-80
2022/03/20 14:47:44;;;;;;;18.37;13.30;;;;;;;21.61;21.79;99875.28;7039752;28;20699;-80
2022/03/20 14:51:06;;;;;;;18.50;14.30;;;;;;;20.63;22.52;99874.00;7040345;28;20338;-80
2022/03/20 14:54:28;;;;;;;22.93;14.23;;;;;;;21.13;21.93;99882.41;7040181;28;20205;-80
2022/03/20 14:57:52;;;;;;;16.77;13.63;;;;;;;20.92;22.28;99852.97;7036542;28;20232;-80
2022/03/20 15:01:16;;;;;;;17.03;14.27;;;;;;;21.62;22.14;99877.78;7039364;28;20197;-80
2022/03/20 15:04:39;;;;;;;18.07;14.83;;;;;;;21.37;21.97;99871.06;7026190;28;20227;-80
2022/03/20 15:11:41;;;;;;;18.90;14.07;;;;;;;20.43;22.74;99875.50;7037099;28;20188;-80
2022/03/20 15:15:04;;;;;;;21.13;15.50;;;;;;;20.49;22.27;99864.44;7037444;28;20234;-80
2022/03/20 15:18:25;;;;;;;18.87;14.13;;;;;;;20.48;22.94;99879.22;7023695;28;20235;-79
2022/03/20 15:21:47;;;;;;;18.17;14.67;;;;;;;21.08;22.46;99869.44;7025566;28;20197;-79
2022/03/20 15:25:11;;;;;;;18.90;14.53;;;;;;;21.08;22.86;99874.94;7045164;28;20210;-80
2022/03/20 15:28:33;;;;;;;19.60;15.93;;;;;;;20.21;22.58;99872.59;7042871;28;20365;-79
2022/03/20 15:31:56;;;;;;;17.37;14.63;;;;;;;20.27;22.57;99862.59;7043855;28;20193;-79
2022/03/20 15:35:17;;;;;;;19.97;13.97;;;;;;;20.87;22.41;99858.31;7043501;28;20296;-80
2022/03/20 15:38:39;;;;;;;18.57;14.63;;;;;;;21.07;22.14;99867.78;7043035;28;20225;-80
2022/03/20 15:42:01;;;;;;;19.97;13.40;;;;;;;21.28;21.70;99872.53;7044153;28;20703;-80
2022/03/20 15:45:23;;;;;;;19.63;13.97;;;;;;;21.03;22.55;99852.88;7043375;28;20213;-79
2022/03/20 15:48:46;;;;;;;19.57;15.13;;;;;;;21.05;22.35;99863.63;7043711;28;20235;-79
2022/03/20 15:52:08;;;;;;;18.23;14.50;;;;;;;20.64;22.82;99841.97;7044247;28;20212;-79
2022/03/20 15:55:29;;;;;;;19.20;14.80;;;;;;;20.58;22.23;99857.47;7044033;28;20750;-79
2022/03/20 15:58:51;;;;;;;23.13;16.13;;;;;;;20.17;22.98;99863.19;7043915;28;20237;-80
2022/03/20 16:02:12;;;;;;;19.83;14.67;;;;;;;20.18;23.78;99847.59;7042469;28;20219;-79
2022/03/20 16:05:35;;;;;;;18.83;15.40;;;;;;;20.76;22.90;99860.00;7043795;28;20197;-80
2022/03/20 16:08:57;;;;;;;16.97;14.67;;;;;;;20.03;22.74;99852.69;7043075;28;20230;-79
2022/03/20 16:12:18;;;;;;;23.27;14.87;;;;;;;20.09;22.98;99868.19;7044439;28;20202;-79
2022/03/20 16:15:43;;;;;;;23.47;14.97;;;;;;;19.97;23.52;99862.72;7042355;28;20203;-79
2022/03/20 16:19:04;;;;;;;20.53;14.93;;;;;;;20.22;22.88;99859.75;7035029;28;20312;-79
2022/03/20 16:22:27;;;;;;;19.53;14.93;;;;;;;20.07;23.41;99867.63;7030301;28;20219;-79
2022/03/20 16:29:29;;;;;;;15.70;12.97;;;;;;;20.49;22.89;99863.56;7042702;28;20221;-79
2022/03/20 16:32:50;;;;;;;16.47;14.27;;;;;;;20.14;22.55;99860.94;7028044;28;20205;-79